createdAt,value
2018-05-16T00:00:43.089Z,17.30
2018-05-16T00:03:10.717Z,17.63
2018-05-16T00:05:39.756Z,17.97
2018-05-16T00:08:07.340Z,19.53
2018-05-16T00:10:34.968Z,20.17
2018-05-16T00:13:02.593Z,20.50
2018-05-16T00:15:31.023Z,18.70
2018-05-16T00:17:58.680Z,20.43
2018-05-16T00:20:27.179Z,20.03
2018-05-16T00:22:54.803Z,21.03
2018-05-16T00:25:22.387Z,22.27
2018-05-16T00:27:50.067Z,22.70
2018-05-16T00:30:17.838Z,20.23
2018-05-16T00:32:45.424Z,22.50
2018-05-16T00:35:13.815Z,20.23
2018-05-16T00:37:41.436Z,21.80
2018-05-16T00:40:09.783Z,22.70
2018-05-16T00:42:37.439Z,22.00
2018-05-16T00:45:05.064Z,22.73
2018-05-16T00:47:32.735Z,22.90
2018-05-16T00:50:00.369Z,23.57
2018-05-16T00:52:28.765Z,22.90
2018-05-16T00:54:57.612Z,24.37
2018-05-16T00:57:25.200Z,25.00
2018-05-16T00:59:53.646Z,24.87
2018-05-16T01:02:21.271Z,26.37
2018-05-16T01:04:48.886Z,24.83
2018-05-16T01:07:16.540Z,27.23
2018-05-16T01:09:44.938Z,25.93
2018-05-16T01:12:12.540Z,26.80
2018-05-16T01:14:40.221Z,26.77
2018-05-16T01:17:07.840Z,28.10
2018-05-16T01:19:35.537Z,28.33
2018-05-16T01:22:03.125Z,30.07
2018-05-16T01:24:30.744Z,29.13
2018-05-16T01:26:58.397Z,27.73
2018-05-16T01:29:26.025Z,28.70
2018-05-16T01:31:54.448Z,30.27
2018-05-16T01:34:22.039Z,30.13
2018-05-16T01:36:49.734Z,30.20
2018-05-16T01:39:17.419Z,29.83
2018-05-16T01:41:45.071Z,28.93
2018-05-16T01:44:12.863Z,30.27
2018-05-16T01:46:40.496Z,29.47
2018-05-16T01:49:20.186Z,29.83
2018-05-16T01:51:47.858Z,28.37
2018-05-16T01:54:15.491Z,29.97
2018-05-16T01:56:43.570Z,29.37
2018-05-16T01:59:11.233Z,31.17
2018-05-16T02:01:38.865Z,30.47
2018-05-16T02:04:06.464Z,29.93
2018-05-16T02:06:34.125Z,29.70
2018-05-16T02:09:01.735Z,30.80
2018-05-16T02:11:29.430Z,32.30
2018-05-16T02:13:57.046Z,32.93
2018-05-16T02:16:24.667Z,33.17
2018-05-16T02:18:52.715Z,33.90
2018-05-16T02:21:20.345Z,33.47
2018-05-16T02:23:47.929Z,32.77
2018-05-16T02:26:15.516Z,32.67
2018-05-16T02:28:43.144Z,34.03
2018-05-16T02:31:10.802Z,33.47
2018-05-16T02:33:38.471Z,32.27
2018-05-16T02:36:06.071Z,32.67
2018-05-16T02:38:34.598Z,33.97
2018-05-16T02:41:02.259Z,33.87
2018-05-16T02:43:30.049Z,32.57
2018-05-16T02:45:57.668Z,32.37
2018-05-16T02:48:25.297Z,34.53
2018-05-16T02:50:53.664Z,32.07
2018-05-16T02:53:22.795Z,33.63
2018-05-16T02:55:51.243Z,33.37
2018-05-16T02:58:19.340Z,34.47
2018-05-16T03:00:47.704Z,34.30
2018-05-16T03:03:16.370Z,34.83
2018-05-16T03:05:43.990Z,36.97
2018-05-16T03:08:11.613Z,35.60
2018-05-16T03:10:39.998Z,35.07
2018-05-16T03:13:08.364Z,36.60
2018-05-16T03:15:36.755Z,34.20
2018-05-16T03:18:05.734Z,37.93
2018-05-16T03:20:33.351Z,38.10
2018-05-16T03:23:00.961Z,37.63
2018-05-16T03:25:30.083Z,37.70
2018-05-16T03:27:57.716Z,40.77
2018-05-16T03:30:26.101Z,40.37
2018-05-16T03:32:54.530Z,39.87
2018-05-16T03:35:22.162Z,39.57
2018-05-16T03:37:49.771Z,38.63
2018-05-16T03:40:18.135Z,40.73
2018-05-16T03:42:45.886Z,39.03
2018-05-16T03:45:13.476Z,37.73
2018-05-16T03:47:41.091Z,38.50
2018-05-16T03:50:09.318Z,39.50
2018-05-16T03:52:36.971Z,36.57
2018-05-16T03:55:04.617Z,35.60
2018-05-16T03:57:44.194Z,37.87
2018-05-16T04:00:24.544Z,37.43
2018-05-16T04:03:04.722Z,37.07
2018-05-16T04:05:32.966Z,35.77
2018-05-16T04:08:01.376Z,37.40
2018-05-16T04:10:28.974Z,34.43
2018-05-16T04:12:56.615Z,35.37
2018-05-16T04:15:24.262Z,37.57
2018-05-16T04:17:51.882Z,37.00
2018-05-16T04:20:19.481Z,35.50
2018-05-16T04:22:47.146Z,35.37
2018-05-16T04:25:14.833Z,35.00
2018-05-16T04:27:42.453Z,33.33
2018-05-16T04:30:10.073Z,32.53
2018-05-16T04:32:37.693Z,32.33
2018-05-16T04:35:05.337Z,34.70
2018-05-16T04:37:32.965Z,30.90
2018-05-16T04:40:00.828Z,31.80
2018-05-16T04:42:28.456Z,29.80
2018-05-16T04:44:56.047Z,30.33
2018-05-16T04:47:23.704Z,29.87
2018-05-16T04:49:51.324Z,28.83
2018-05-16T04:52:18.936Z,28.33
2018-05-16T04:54:46.551Z,28.60
2018-05-16T04:57:14.172Z,30.13
2018-05-16T04:59:41.836Z,28.87
2018-05-16T05:02:10.229Z,29.47
2018-05-16T05:04:37.815Z,29.63
2018-05-16T05:07:05.439Z,30.97
2018-05-16T05:09:33.059Z,29.93
2018-05-16T05:12:00.677Z,29.57
2018-05-16T05:14:28.341Z,29.73
2018-05-16T05:16:56.021Z,28.93
2018-05-16T05:19:23.674Z,28.80
2018-05-16T05:21:51.284Z,29.00
2018-05-16T05:24:18.907Z,28.77
2018-05-16T05:26:46.515Z,28.10
2018-05-16T05:29:14.902Z,28.63
2018-05-16T05:31:42.524Z,26.97
2018-05-16T05:34:10.383Z,27.97
2018-05-16T05:36:38.035Z,29.43
2018-05-16T05:39:05.661Z,29.07
2018-05-16T05:41:33.289Z,28.33
2018-05-16T05:44:00.962Z,26.97
2018-05-16T05:46:29.324Z,27.10
2018-05-16T05:48:57.705Z,27.60
2018-05-16T05:51:25.304Z,26.80
2018-05-16T05:53:52.946Z,27.83
2018-05-16T05:56:20.633Z,28.47
2018-05-16T05:58:48.291Z,28.27
2018-05-16T06:01:15.951Z,28.47
2018-05-16T06:03:44.860Z,28.80
2018-05-16T06:06:12.648Z,28.47
2018-05-16T06:08:40.330Z,27.93
2018-05-16T06:11:08.716Z,28.27
2018-05-16T06:13:37.141Z,25.43
2018-05-16T06:16:04.779Z,29.23
2018-05-16T06:18:33.366Z,27.63
2018-05-16T06:21:00.955Z,28.37
2018-05-16T06:23:28.572Z,28.30
2018-05-16T06:25:56.221Z,28.37
2018-05-16T06:28:24.621Z,29.03
2018-05-16T06:30:52.798Z,29.57
2018-05-16T06:33:20.420Z,27.10
2018-05-16T06:35:48.821Z,28.40
2018-05-16T06:38:16.426Z,28.10
2018-05-16T06:40:44.112Z,28.07
2018-05-16T06:43:12.525Z,26.50
2018-05-16T06:45:40.147Z,27.10
2018-05-16T06:48:07.770Z,26.57
2018-05-16T06:50:35.470Z,26.23
2018-05-16T06:53:03.835Z,25.17
2018-05-16T06:55:31.455Z,25.57
2018-05-16T06:57:59.090Z,24.93
2018-05-16T07:00:27.514Z,24.03
2018-05-16T07:02:55.145Z,25.87
2018-05-16T07:05:22.769Z,23.70
2018-05-16T07:07:50.755Z,21.93
2018-05-16T07:12:53.296Z,24.67
2018-05-16T07:15:20.969Z,23.07
2018-05-16T07:17:48.761Z,22.17
2018-05-16T07:20:16.373Z,21.60
2018-05-16T07:22:44.008Z,21.47
2018-05-16T07:25:13.627Z,21.80
2018-05-16T07:27:41.253Z,21.67
2018-05-16T07:30:10.386Z,19.73
2018-05-16T07:32:37.984Z,19.57
2018-05-16T07:35:05.606Z,19.93
2018-05-16T07:37:33.202Z,19.07
2018-05-16T07:40:00.816Z,17.80
2018-05-16T07:42:28.419Z,18.80
2018-05-16T07:44:56.166Z,17.27
2018-05-16T07:47:23.788Z,18.43
2018-05-16T07:49:51.459Z,16.43
2018-05-16T07:52:19.337Z,15.63
2018-05-16T07:54:46.954Z,17.53
2018-05-16T07:57:14.572Z,16.17
2018-05-16T07:59:42.194Z,16.10
2018-05-16T08:02:09.826Z,15.37
2018-05-16T08:04:37.426Z,15.27
2018-05-16T08:07:05.074Z,14.83
2018-05-16T08:09:32.773Z,14.30
2018-05-16T08:12:00.404Z,14.40
2018-05-16T08:14:28.024Z,13.10
2018-05-16T08:16:56.533Z,12.63
2018-05-16T08:19:24.210Z,11.73
2018-05-16T08:21:52.753Z,11.83
2018-05-16T08:24:21.076Z,12.77
2018-05-16T08:26:48.755Z,12.73
2018-05-16T08:29:16.360Z,13.27
2018-05-16T08:31:45.144Z,12.20
2018-05-16T08:34:13.559Z,14.13
2018-05-16T08:36:42.001Z,12.80
2018-05-16T08:39:09.669Z,17.40
2018-05-16T08:41:38.026Z,12.67
2018-05-16T08:44:05.690Z,12.90
2018-05-16T08:46:33.286Z,12.77
2018-05-16T08:49:00.943Z,11.17
2018-05-16T08:51:28.569Z,11.47
2018-05-16T08:53:56.327Z,11.20
2018-05-16T08:56:23.922Z,10.73
2018-05-16T08:58:52.323Z,11.70
2018-05-16T09:01:20.332Z,12.27
2018-05-16T09:03:47.941Z,11.57
2018-05-16T09:06:15.616Z,10.40
2018-05-16T09:08:43.228Z,11.47
2018-05-16T09:11:11.641Z,12.10
2018-05-16T09:13:39.349Z,11.60
2018-05-16T09:16:07.006Z,11.43
2018-05-16T09:18:34.634Z,10.20
2018-05-16T09:21:02.333Z,9.53
2018-05-16T09:23:29.929Z,8.67
2018-05-16T09:25:58.305Z,9.10
2018-05-16T09:28:26.734Z,9.43
2018-05-16T09:30:54.944Z,9.60
2018-05-16T09:33:22.569Z,9.37
2018-05-16T09:35:50.164Z,9.10
2018-05-16T09:38:18.611Z,9.20
2018-05-16T09:40:46.260Z,8.30
2018-05-16T09:43:13.878Z,8.23
2018-05-16T09:45:43.081Z,7.97
2018-05-16T09:48:10.639Z,7.03
2018-05-16T09:50:39.015Z,7.23
2018-05-16T09:53:07.389Z,6.43
2018-05-16T09:55:35.774Z,7.27
2018-05-16T09:58:04.212Z,6.77
2018-05-16T10:00:31.834Z,7.03
2018-05-16T10:03:00.073Z,6.47
2018-05-16T10:05:28.475Z,10.03
2018-05-16T10:07:56.824Z,6.70
2018-05-16T10:10:24.510Z,6.00
2018-05-16T10:12:52.885Z,6.37
2018-05-16T10:15:21.260Z,6.90
2018-05-16T10:17:49.710Z,6.67
2018-05-16T10:20:18.040Z,5.30
2018-05-16T10:22:45.566Z,5.43
2018-05-16T10:25:13.199Z,5.20
2018-05-16T10:27:40.960Z,5.30
2018-05-16T10:30:08.575Z,5.47
2018-05-16T10:32:36.200Z,5.73
2018-05-16T10:35:03.849Z,5.10
2018-05-16T10:37:31.460Z,5.73
2018-05-16T10:39:59.109Z,5.27
2018-05-16T10:42:26.721Z,5.57
2018-05-16T10:44:54.561Z,4.90
2018-05-16T10:47:22.802Z,5.10
2018-05-16T10:49:51.205Z,4.60
2018-05-16T10:52:18.854Z,4.43
2018-05-16T10:54:47.224Z,4.93
2018-05-16T10:57:16.341Z,5.30
2018-05-16T10:59:44.045Z,4.47
2018-05-16T11:02:11.766Z,4.80
2018-05-16T11:04:39.408Z,5.27
2018-05-16T11:07:07.017Z,5.03
2018-05-16T11:09:34.677Z,4.60
2018-05-16T11:12:02.299Z,5.27
2018-05-16T11:14:32.185Z,4.93
2018-05-16T11:17:00.561Z,4.40
2018-05-16T11:19:28.923Z,4.67
2018-05-16T11:21:56.536Z,4.63
2018-05-16T11:24:25.039Z,5.17
2018-05-16T11:26:54.619Z,5.33
2018-05-16T11:29:22.281Z,5.43
2018-05-16T11:31:49.890Z,12.17
2018-05-16T11:34:17.521Z,5.40
2018-05-16T11:36:45.302Z,6.37
2018-05-16T11:39:12.840Z,5.47
2018-05-16T11:41:40.465Z,5.80
2018-05-16T11:44:08.891Z,5.50
2018-05-16T11:46:37.117Z,6.10
2018-05-16T11:49:05.502Z,6.10
2018-05-16T11:51:33.951Z,5.10
2018-05-16T11:54:02.399Z,4.40
2018-05-16T11:56:30.022Z,5.33
2018-05-16T11:58:57.756Z,4.63
2018-05-16T12:01:25.346Z,4.27
2018-05-16T12:03:53.448Z,4.50
2018-05-16T12:06:21.833Z,4.50
2018-05-16T12:08:50.070Z,4.97
2018-05-16T12:11:17.681Z,4.90
2018-05-16T12:13:45.321Z,5.13
2018-05-16T12:16:12.954Z,4.77
2018-05-16T12:18:40.542Z,4.83
2018-05-16T12:21:08.243Z,4.63
2018-05-16T12:23:36.673Z,4.50
2018-05-16T12:26:04.364Z,4.90
2018-05-16T12:28:32.010Z,4.30
2018-05-16T12:30:59.592Z,4.50
2018-05-16T12:33:27.258Z,4.97
2018-05-16T12:35:55.202Z,4.40
2018-05-16T12:38:22.960Z,4.20
2018-05-16T12:40:50.634Z,3.93
2018-05-16T12:43:19.075Z,4.23
2018-05-16T12:45:47.055Z,3.83
2018-05-16T12:48:14.681Z,3.60
2018-05-16T12:50:43.145Z,3.50
2018-05-16T12:53:10.752Z,3.80
2018-05-16T12:55:39.021Z,3.50
2018-05-16T12:58:07.415Z,3.70
2018-05-16T13:00:35.003Z,3.90
2018-05-16T13:03:02.659Z,3.83
2018-05-16T13:05:31.221Z,3.70
2018-05-16T13:07:59.467Z,3.83
2018-05-16T13:10:27.799Z,3.90
2018-05-16T13:12:55.450Z,3.80
2018-05-16T13:15:23.080Z,4.13
2018-05-16T13:17:50.762Z,3.57
2018-05-16T13:20:19.601Z,3.60
2018-05-16T13:22:47.995Z,4.13
2018-05-16T13:25:16.390Z,3.47
2018-05-16T13:27:44.039Z,3.23
2018-05-16T13:30:12.349Z,3.13
2018-05-16T13:32:40.009Z,3.50
2018-05-16T13:35:07.673Z,3.40
2018-05-16T13:37:35.272Z,3.33
2018-05-16T13:40:03.666Z,3.30
2018-05-16T13:42:32.028Z,3.20
2018-05-16T13:45:00.439Z,3.50
2018-05-16T13:47:28.086Z,3.40
2018-05-16T13:49:55.977Z,3.57
2018-05-16T13:52:25.496Z,3.30
2018-05-16T13:54:53.257Z,3.60
2018-05-16T13:57:21.653Z,3.27
2018-05-16T13:59:49.280Z,3.80
2018-05-16T14:02:16.892Z,4.00
2018-05-16T14:04:45.277Z,3.50
2018-05-16T14:07:14.419Z,4.23
2018-05-16T14:09:42.029Z,4.00
2018-05-16T14:12:11.154Z,3.90
2018-05-16T14:14:38.772Z,3.50
2018-05-16T14:17:06.409Z,3.83
2018-05-16T14:19:34.496Z,4.20
2018-05-16T14:22:02.544Z,3.63
2018-05-16T14:24:33.277Z,3.60
2018-05-16T14:27:01.809Z,3.40
2018-05-16T14:29:30.369Z,7.33
2018-05-16T14:31:59.050Z,3.70
2018-05-16T14:34:26.745Z,3.90
2018-05-16T14:37:00.478Z,3.70
2018-05-16T14:39:28.090Z,4.30
2018-05-16T14:41:55.684Z,4.00
2018-05-16T14:44:23.332Z,4.10
2018-05-16T14:46:50.917Z,4.57
2018-05-16T14:49:18.539Z,4.33
2018-05-16T14:51:47.798Z,4.40
2018-05-16T14:54:16.715Z,4.50
2018-05-16T14:56:45.029Z,4.77
2018-05-16T14:59:15.823Z,4.00
2018-05-16T15:01:43.642Z,4.00
2018-05-16T15:04:12.804Z,4.33
2018-05-16T15:06:40.454Z,4.10
2018-05-16T15:09:08.882Z,3.77
2018-05-16T15:11:36.605Z,4.43
2018-05-16T15:14:05.008Z,4.03
2018-05-16T15:16:32.611Z,4.03
2018-05-16T15:19:00.216Z,4.23
2018-05-16T15:21:27.864Z,4.00
2018-05-16T15:23:56.646Z,4.40
2018-05-16T15:26:26.045Z,3.57
2018-05-16T15:28:54.484Z,4.10
2018-05-16T15:31:22.708Z,4.03
2018-05-16T15:33:51.677Z,4.13
2018-05-16T15:36:19.332Z,3.80
2018-05-16T15:38:47.505Z,4.07
2018-05-16T15:41:16.228Z,3.70
2018-05-16T15:43:44.620Z,3.80
2018-05-16T15:46:12.237Z,4.17
2018-05-16T15:48:40.610Z,4.07
2018-05-16T15:51:09.755Z,4.07
2018-05-16T15:53:37.368Z,4.10
2018-05-16T15:56:05.000Z,4.43
2018-05-16T15:58:32.891Z,4.80
2018-05-16T16:01:01.750Z,4.57
2018-05-16T16:03:30.111Z,4.57
2018-05-16T16:05:58.508Z,6.37
2018-05-16T16:08:26.147Z,5.10
2018-05-16T16:10:53.913Z,4.67
2018-05-16T16:13:21.696Z,4.70
2018-05-16T16:15:49.306Z,4.80
2018-05-16T16:18:17.716Z,4.20
2018-05-16T16:20:45.383Z,4.43
2018-05-16T16:23:13.158Z,4.03
2018-05-16T16:25:40.927Z,4.40
2018-05-16T16:28:09.713Z,4.47
2018-05-16T16:30:37.366Z,4.70
2018-05-16T16:33:04.952Z,4.80
2018-05-16T16:35:32.561Z,4.60
2018-05-16T16:38:01.211Z,4.43
2018-05-16T16:40:29.588Z,4.70
2018-05-16T16:42:57.195Z,4.97
2018-05-16T16:45:24.808Z,5.27
2018-05-16T16:47:53.196Z,5.20
2018-05-16T16:50:21.550Z,5.13
2018-05-16T16:52:49.154Z,5.33
2018-05-16T16:55:17.519Z,4.77
2018-05-16T16:57:45.906Z,5.33
2018-05-16T17:00:14.291Z,5.53
2018-05-16T17:02:41.864Z,4.50
2018-05-16T17:05:09.469Z,5.47
2018-05-16T17:07:37.119Z,4.87
2018-05-16T17:10:05.521Z,5.27
2018-05-16T17:12:33.160Z,5.20
2018-05-16T17:15:00.776Z,5.00
2018-05-16T17:17:28.496Z,5.10
2018-05-16T17:19:56.124Z,5.77
2018-05-16T17:22:23.771Z,5.17
2018-05-16T17:24:51.423Z,5.33
2018-05-16T17:27:19.038Z,5.17
2018-05-16T17:29:46.610Z,5.00
2018-05-16T17:32:14.214Z,5.17
2018-05-16T17:34:41.828Z,5.23
2018-05-16T17:37:10.216Z,5.77
2018-05-16T17:39:38.590Z,4.60
2018-05-16T17:42:06.966Z,5.27
2018-05-16T17:44:35.346Z,5.47
2018-05-16T17:47:03.732Z,5.00
2018-05-16T17:49:32.152Z,4.80
2018-05-16T17:51:59.734Z,5.20
2018-05-16T17:54:27.338Z,4.70
2018-05-16T17:56:54.950Z,5.03
2018-05-16T17:59:22.746Z,6.23
2018-05-16T18:01:52.152Z,5.40
2018-05-16T18:04:20.652Z,5.23
2018-05-16T18:06:48.293Z,4.90
2018-05-16T18:09:17.041Z,6.17
2018-05-16T18:11:45.538Z,5.50
2018-05-16T18:17:32.721Z,5.17
2018-05-16T18:20:00.304Z,5.10
2018-05-16T18:22:27.931Z,5.20
2018-05-16T18:24:56.264Z,5.27
2018-05-16T18:27:23.920Z,5.33
2018-05-16T18:29:52.241Z,6.07
2018-05-16T18:32:20.621Z,5.37
2018-05-16T18:34:48.245Z,5.57
2018-05-16T18:37:15.816Z,5.70
2018-05-16T18:39:43.510Z,5.97
2018-05-16T18:42:11.150Z,8.37
2018-05-16T18:44:39.539Z,5.90
2018-05-16T18:47:07.966Z,5.77
2018-05-16T18:49:35.590Z,5.93
2018-05-16T18:52:04.809Z,5.60
2018-05-16T18:54:32.490Z,6.50
2018-05-16T18:57:00.241Z,5.83
2018-05-16T18:59:27.915Z,5.77
2018-05-16T19:01:55.665Z,6.00
2018-05-16T19:04:23.308Z,7.50
2018-05-16T19:06:51.165Z,7.07
2018-05-16T19:09:19.464Z,5.90
2018-05-16T19:11:48.018Z,6.23
2018-05-16T19:14:15.661Z,6.10
2018-05-16T19:16:44.088Z,6.07
2018-05-16T19:19:11.734Z,6.90
2018-05-16T19:21:39.316Z,6.33
2018-05-16T19:24:07.035Z,5.73
2018-05-16T19:26:34.674Z,6.23
2018-05-16T19:29:04.133Z,6.10
2018-05-16T19:31:32.739Z,6.10
2018-05-16T19:34:00.423Z,5.77
2018-05-16T19:36:28.818Z,5.97
2018-05-16T19:38:57.240Z,6.33
2018-05-16T19:41:24.920Z,6.57
2018-05-16T19:43:54.057Z,6.37
2018-05-16T19:46:21.714Z,6.83
2018-05-16T19:48:49.978Z,8.23
2018-05-16T19:51:18.760Z,8.07
2018-05-16T19:53:46.397Z,7.07
2018-05-16T19:56:14.170Z,7.13
2018-05-16T19:58:41.906Z,7.20
2018-05-16T20:01:09.770Z,7.70
2018-05-16T20:03:38.603Z,7.30
2018-05-16T20:06:06.988Z,7.23
2018-05-16T20:08:35.425Z,8.00
2018-05-16T20:11:05.057Z,6.80
2018-05-16T20:13:32.850Z,8.03
2018-05-16T20:16:01.306Z,8.90
2018-05-16T20:18:28.940Z,8.17
2018-05-16T20:20:56.633Z,8.13
2018-05-16T20:23:24.991Z,8.03
2018-05-16T20:25:52.901Z,8.10
2018-05-16T20:28:21.414Z,8.33
2018-05-16T20:30:49.101Z,7.93
2018-05-16T20:33:16.693Z,8.63
2018-05-16T20:35:45.071Z,8.00
2018-05-16T20:38:12.746Z,8.40
2018-05-16T20:40:40.406Z,8.33
2018-05-16T20:43:09.069Z,9.13
2018-05-16T20:45:37.498Z,8.60
2018-05-16T20:48:05.133Z,9.00
2018-05-16T20:50:32.765Z,8.43
2018-05-16T20:53:01.193Z,8.73
2018-05-16T20:55:28.837Z,8.20
2018-05-16T20:57:56.423Z,8.30
2018-05-16T21:00:24.031Z,8.47
2018-05-16T21:02:52.410Z,7.93
2018-05-16T21:05:20.831Z,8.40
2018-05-16T21:07:48.423Z,9.07
2018-05-16T21:10:16.027Z,8.20
2018-05-16T21:12:43.641Z,9.47
2018-05-16T21:15:11.243Z,8.50
2018-05-16T21:17:39.619Z,8.67
2018-05-16T21:20:07.281Z,9.03
2018-05-16T21:22:34.982Z,9.90
2018-05-16T21:25:02.619Z,9.60
2018-05-16T21:27:30.194Z,8.77
2018-05-16T21:29:57.763Z,8.70
2018-05-16T21:32:25.425Z,8.23
2018-05-16T21:34:53.600Z,8.17
2018-05-16T21:37:21.850Z,8.47
2018-05-16T21:39:49.497Z,8.40
2018-05-16T21:42:17.117Z,8.60
2018-05-16T21:44:44.742Z,9.17
2018-05-16T21:47:12.372Z,8.23
2018-05-16T21:49:40.048Z,8.53
2018-05-16T21:52:07.744Z,8.13
2018-05-16T21:54:35.404Z,8.63
2018-05-16T21:57:04.113Z,7.73
2018-05-16T21:59:32.749Z,8.83
2018-05-16T22:02:00.355Z,8.20
2018-05-16T22:04:27.981Z,8.77
2018-05-16T22:06:55.553Z,7.87
2018-05-16T22:09:23.163Z,8.00
2018-05-16T22:11:51.574Z,7.70
2018-05-16T22:14:19.185Z,7.70
2018-05-16T22:16:47.566Z,8.23
2018-05-16T22:19:15.942Z,8.27
2018-05-16T22:21:44.345Z,9.07
2018-05-16T22:24:11.923Z,8.50
2018-05-16T22:26:39.535Z,8.43
2018-05-16T22:29:07.912Z,8.17
2018-05-16T22:31:41.324Z,8.17
2018-05-16T22:34:15.437Z,8.60
2018-05-16T22:36:49.547Z,8.43
2018-05-16T22:39:23.684Z,8.23
2018-05-16T22:41:57.077Z,8.73
2018-05-16T22:44:40.561Z,8.67
2018-05-16T22:47:08.243Z,8.47
2018-05-16T22:49:36.588Z,8.03
2018-05-16T22:52:04.195Z,8.53
2018-05-16T22:54:32.573Z,8.83
2018-05-16T22:57:00.205Z,8.57
2018-05-16T22:59:27.847Z,8.90
2018-05-16T23:01:55.377Z,8.70
2018-05-16T23:04:23.027Z,8.93
2018-05-16T23:06:50.607Z,8.73
2018-05-16T23:09:18.235Z,8.63
2018-05-16T23:11:45.816Z,8.57
2018-05-16T23:14:13.450Z,7.77
2018-05-16T23:16:41.073Z,7.80
2018-05-16T23:19:09.475Z,7.50
2018-05-16T23:21:37.877Z,7.30
2018-05-16T23:24:05.486Z,7.43
2018-05-16T23:26:33.080Z,6.83
2018-05-16T23:29:01.455Z,6.43
2018-05-16T23:31:29.827Z,7.10
2018-05-16T23:33:58.172Z,6.63
2018-05-16T23:36:25.813Z,6.70
2018-05-16T23:38:53.395Z,6.67
2018-05-16T23:41:21.000Z,7.10
2018-05-16T23:43:48.645Z,7.63
2018-05-16T23:46:16.991Z,7.70
2018-05-16T23:48:44.641Z,7.50
2018-05-16T23:51:12.261Z,7.50
2018-05-16T23:53:39.876Z,7.73
2018-05-16T23:56:07.461Z,7.53
2018-05-16T23:58:35.803Z,7.80
